createdAt,value
2023-01-17T00:00:56.617Z,98953.81
2023-01-17T00:02:01.456Z,98957.14
2023-01-17T00:03:04.742Z,98953.16
2023-01-17T00:04:26.440Z,98952.02
2023-01-17T00:05:48.289Z,98955.94
2023-01-17T00:07:09.725Z,98953.20
2023-01-17T00:08:31.566Z,98953.24
2023-01-17T00:09:53.003Z,98955.20
2023-01-17T00:10:58.350Z,98954.70
2023-01-17T00:12:05.631Z,98953.50
2023-01-17T00:13:08.607Z,98959.85
2023-01-17T00:14:11.601Z,98955.98
2023-01-17T00:15:16.889Z,98954.21
2023-01-17T00:16:20.052Z,98954.85
2023-01-17T00:17:24.970Z,98953.16
2023-01-17T00:18:27.889Z,98957.40
2023-01-17T00:19:49.863Z,98954.81
2023-01-17T00:21:11.343Z,98956.79
2023-01-17T00:22:49.651Z,98954.66
2023-01-17T00:24:24.811Z,98953.40
2023-01-17T00:25:55.904Z,98948.55
2023-01-17T00:27:14.400Z,98945.73
2023-01-17T00:28:18.321Z,98942.49
2023-01-17T00:29:21.225Z,98942.47
2023-01-17T00:30:24.523Z,98939.44
2023-01-17T00:31:27.655Z,98939.38
2023-01-17T00:32:30.555Z,98937.07
2023-01-17T00:33:34.180Z,98930.77
2023-01-17T00:34:37.346Z,98928.03
2023-01-17T00:35:40.539Z,98931.13
2023-01-17T00:36:43.485Z,98928.96
2023-01-17T00:37:46.646Z,98929.17
2023-01-17T00:38:49.833Z,98928.52
2023-01-17T00:39:52.769Z,98924.31
2023-01-17T00:41:03.039Z,98920.36
2023-01-17T00:42:06.183Z,98919.91
2023-01-17T00:43:29.506Z,98920.09
2023-01-17T00:44:51.423Z,98919.09
2023-01-17T00:46:14.503Z,98914.61
2023-01-17T00:47:35.945Z,98921.27
2023-01-17T00:48:58.405Z,98912.73
2023-01-17T00:50:20.058Z,98915.38
2023-01-17T00:51:42.946Z,98911.79
2023-01-17T00:53:04.446Z,98911.48
2023-01-17T00:54:27.275Z,98910.64
2023-01-17T00:55:48.844Z,98906.75
2023-01-17T00:57:11.136Z,98905.81
2023-01-17T00:58:32.789Z,98900.86
2023-01-17T00:59:54.644Z,98899.63
2023-01-17T01:01:16.713Z,98896.63
2023-01-17T01:02:39.006Z,98891.58
2023-01-17T01:04:00.757Z,98888.63
2023-01-17T01:05:23.130Z,98885.27
2023-01-17T01:06:44.794Z,98882.36
2023-01-17T01:08:06.555Z,98876.98
2023-01-17T01:09:28.298Z,98875.79
2023-01-17T01:10:51.652Z,98871.14
2023-01-17T01:12:13.267Z,98871.97
2023-01-17T01:13:35.078Z,98863.44
2023-01-17T01:14:57.565Z,98863.19
2023-01-17T01:16:20.398Z,98857.14
2023-01-17T01:17:42.426Z,98858.03
2023-01-17T01:19:05.005Z,98855.14
2023-01-17T01:20:27.585Z,98852.52
2023-01-17T01:21:49.776Z,98847.08
2023-01-17T01:23:11.601Z,98842.49
2023-01-17T01:24:34.902Z,98839.11
2023-01-17T01:25:57.041Z,98838.57
2023-01-17T01:27:18.824Z,98835.05
2023-01-17T01:28:41.036Z,98832.27
2023-01-17T01:30:02.823Z,98830.29
2023-01-17T01:31:25.305Z,98830.20
2023-01-17T01:32:47.161Z,98827.55
2023-01-17T01:33:52.242Z,98829.19
2023-01-17T01:34:55.387Z,98828.39
2023-01-17T01:35:58.314Z,98825.86
2023-01-17T01:37:01.335Z,98825.36
2023-01-17T01:38:04.767Z,98824.57
2023-01-17T01:39:08.705Z,98821.75
2023-01-17T01:40:12.800Z,98819.79
2023-01-17T01:41:16.060Z,98821.11
2023-01-17T01:42:18.959Z,98820.34
2023-01-17T01:43:46.046Z,98823.35
2023-01-17T01:44:54.287Z,98818.09
2023-01-17T01:45:58.838Z,98812.63
2023-01-17T01:47:02.606Z,98807.96
2023-01-17T01:48:25.291Z,98807.87
2023-01-17T01:49:29.658Z,98801.36
2023-01-17T01:50:37.035Z,98801.14
2023-01-17T01:51:43.802Z,98796.06
2023-01-17T01:52:52.608Z,98795.98
2023-01-17T01:54:03.736Z,98786.70
2023-01-17T01:55:16.593Z,98788.86
2023-01-17T01:56:26.208Z,98783.63
2023-01-17T01:57:34.665Z,98782.05
2023-01-17T01:58:41.652Z,98776.30
2023-01-17T01:59:49.580Z,98775.02
2023-01-17T02:00:52.984Z,98770.10
2023-01-17T02:01:59.719Z,98764.09
2023-01-17T02:03:08.023Z,98762.41
2023-01-17T02:04:12.961Z,98759.02
2023-01-17T02:05:20.585Z,98750.30
2023-01-17T02:06:35.599Z,98747.91
2023-01-17T02:07:45.702Z,98746.61
2023-01-17T02:08:49.076Z,98740.04
2023-01-17T02:09:52.988Z,98740.25
2023-01-17T02:10:56.414Z,98739.30
2023-01-17T02:11:59.440Z,98735.86
2023-01-17T02:13:02.889Z,98728.03
2023-01-17T02:14:06.503Z,98730.77
2023-01-17T02:15:10.082Z,98722.75
2023-01-17T02:16:31.897Z,98719.13
2023-01-17T02:17:50.332Z,98716.36
2023-01-17T02:19:15.367Z,98716.61
2023-01-17T02:20:33.896Z,98715.98
2023-01-17T02:21:51.709Z,98711.80
2023-01-17T02:23:12.749Z,98710.59
2023-01-17T02:24:30.928Z,98708.36
2023-01-17T02:25:43.579Z,98702.21
2023-01-17T02:27:07.123Z,98705.96
2023-01-17T02:28:46.146Z,98701.41
2023-01-17T02:32:35.226Z,98696.78
2023-01-17T02:33:55.468Z,98693.36
2023-01-17T02:35:28.312Z,98696.70
2023-01-17T02:36:42.078Z,98695.73
2023-01-17T02:38:09.436Z,98692.27
2023-01-17T02:39:20.408Z,98687.73
2023-01-17T02:40:29.646Z,98689.95
2023-01-17T02:41:39.767Z,98686.14
2023-01-17T02:42:50.246Z,98686.30
2023-01-17T02:43:54.073Z,98685.95
2023-01-17T02:44:57.442Z,98683.88
2023-01-17T02:46:00.681Z,98681.44
2023-01-17T02:47:22.110Z,98684.10
2023-01-17T02:48:30.425Z,98684.63
2023-01-17T02:49:33.650Z,98685.41
2023-01-17T02:50:51.124Z,98682.00
2023-01-17T02:51:56.797Z,98678.94
2023-01-17T02:53:52.974Z,98678.94
2023-01-17T02:55:20.711Z,98676.91
2023-01-17T02:56:54.445Z,98674.18
2023-01-17T02:58:16.856Z,98673.56
2023-01-17T02:59:52.774Z,98671.16
2023-01-17T03:01:35.153Z,98665.89
2023-01-17T03:03:16.430Z,98666.13
2023-01-17T03:04:31.409Z,98659.88
2023-01-17T03:05:44.306Z,98655.66
2023-01-17T03:06:55.925Z,98658.67
2023-01-17T03:08:01.522Z,98653.17
2023-01-17T03:09:05.998Z,98649.73
2023-01-17T03:10:11.589Z,98654.81
2023-01-17T03:11:15.183Z,98650.05
2023-01-17T03:12:20.527Z,98651.80
2023-01-17T03:13:23.934Z,98645.41
2023-01-17T03:14:30.103Z,98645.20
2023-01-17T03:15:33.099Z,98646.06
2023-01-17T03:16:36.222Z,98646.88
2023-01-17T03:17:42.806Z,98649.23
2023-01-17T03:18:46.006Z,98643.35
2023-01-17T03:19:48.962Z,98641.77
2023-01-17T03:20:52.762Z,98637.72
2023-01-17T03:21:55.758Z,98633.36
2023-01-17T03:22:58.674Z,98630.39
2023-01-17T03:24:03.192Z,98628.45
2023-01-17T03:25:06.882Z,98624.03
2023-01-17T03:26:09.914Z,98628.70
2023-01-17T03:27:12.835Z,98626.38
2023-01-17T03:28:15.848Z,98627.73
2023-01-17T03:29:19.175Z,98628.51
2023-01-17T03:30:23.202Z,98626.21
2023-01-17T03:31:26.345Z,98626.29
2023-01-17T03:32:29.888Z,98626.80
2023-01-17T03:33:33.087Z,98620.75
2023-01-17T03:34:36.300Z,98621.14
2023-01-17T03:35:40.813Z,98614.66
2023-01-17T03:36:46.022Z,98610.21
2023-01-17T03:37:49.064Z,98606.25
2023-01-17T03:38:52.152Z,98600.16
2023-01-17T03:39:55.144Z,98602.70
2023-01-17T03:40:58.353Z,98604.55
2023-01-17T03:42:01.224Z,98598.40
2023-01-17T03:43:04.222Z,98597.42
2023-01-17T03:44:07.221Z,98596.93
2023-01-17T03:45:10.818Z,98597.14
2023-01-17T03:46:23.166Z,98595.54
2023-01-17T03:47:26.160Z,98596.50
2023-01-17T03:48:29.664Z,98597.65
2023-01-17T03:49:32.611Z,98592.66
2023-01-17T03:50:35.802Z,98592.91
2023-01-17T03:51:38.791Z,98591.85
2023-01-17T03:52:41.695Z,98589.73
2023-01-17T03:53:47.032Z,98588.14
2023-01-17T03:54:50.106Z,98585.17
2023-01-17T03:55:53.175Z,98584.88
2023-01-17T03:56:56.107Z,98583.11
2023-01-17T03:57:59.026Z,98579.08
2023-01-17T03:59:02.133Z,98575.71
2023-01-17T04:00:05.777Z,98571.43
2023-01-17T04:01:10.136Z,98567.69
2023-01-17T04:02:13.355Z,98568.61
2023-01-17T04:03:16.433Z,98569.27
2023-01-17T04:04:19.379Z,98570.34
2023-01-17T04:05:22.388Z,98571.33
2023-01-17T04:06:25.427Z,98568.64
2023-01-17T04:07:28.313Z,98571.52
2023-01-17T04:08:31.447Z,98568.43
2023-01-17T04:09:35.483Z,98569.04
2023-01-17T04:10:38.390Z,98560.95
2023-01-17T04:11:41.630Z,98560.26
2023-01-17T04:12:44.627Z,98559.03
2023-01-17T04:13:47.567Z,98559.96
2023-01-17T04:14:50.514Z,98549.36
2023-01-17T04:15:53.654Z,98554.33
2023-01-17T04:16:57.422Z,98546.83
2023-01-17T04:18:01.019Z,98546.19
2023-01-17T04:19:04.033Z,98547.48
2023-01-17T04:20:07.751Z,98547.19
2023-01-17T04:21:10.818Z,98541.27
2023-01-17T04:22:14.249Z,98540.14
2023-01-17T04:23:17.829Z,98536.94
2023-01-17T04:24:20.774Z,98538.89
2023-01-17T04:25:25.802Z,98538.58
2023-01-17T04:26:28.720Z,98532.91
2023-01-17T04:27:31.880Z,98528.10
2023-01-17T04:28:34.841Z,98523.57
2023-01-17T04:29:37.837Z,98520.35
2023-01-17T04:30:40.954Z,98520.60
2023-01-17T04:31:44.081Z,98518.27
2023-01-17T04:32:47.415Z,98518.36
2023-01-17T04:33:50.334Z,98517.74
2023-01-17T04:34:53.388Z,98517.04
2023-01-17T04:35:56.398Z,98515.84
2023-01-17T04:36:59.411Z,98511.76
2023-01-17T04:38:03.313Z,98509.13
2023-01-17T04:39:06.423Z,98512.59
2023-01-17T04:40:11.342Z,98512.44
2023-01-17T04:41:14.319Z,98511.23
2023-01-17T04:42:17.291Z,98511.27
2023-01-17T04:43:20.596Z,98511.60
2023-01-17T04:44:23.590Z,98512.13
2023-01-17T04:45:26.611Z,98514.52
2023-01-17T04:46:29.646Z,98515.14
2023-01-17T04:47:34.563Z,98516.85
2023-01-17T04:48:38.321Z,98512.58
2023-01-17T04:49:42.779Z,98510.08
2023-01-17T04:50:47.120Z,98509.13
2023-01-17T04:51:50.055Z,98507.02
2023-01-17T04:52:52.973Z,98502.16
2023-01-17T04:53:56.312Z,98505.14
2023-01-17T04:54:59.300Z,98502.08
2023-01-17T04:56:03.087Z,98505.21
2023-01-17T04:57:06.100Z,98505.97
2023-01-17T04:58:09.028Z,98505.82
2023-01-17T04:59:12.093Z,98501.79
2023-01-17T05:00:15.839Z,98500.92
2023-01-17T05:01:18.855Z,98500.41
2023-01-17T05:02:21.990Z,98502.25
2023-01-17T05:03:25.253Z,98499.92
2023-01-17T05:04:28.566Z,98497.81
2023-01-17T05:05:31.506Z,98499.45
2023-01-17T05:06:34.528Z,98497.20
2023-01-17T05:07:37.414Z,98495.33
2023-01-17T05:08:40.337Z,98496.16
2023-01-17T05:09:43.919Z,98494.80
2023-01-17T05:10:47.308Z,98492.52
2023-01-17T05:11:50.500Z,98495.33
2023-01-17T05:12:58.653Z,98494.76
2023-01-17T05:14:01.643Z,98493.95
2023-01-17T05:15:05.293Z,98498.07
2023-01-17T05:16:08.343Z,98494.61
2023-01-17T05:17:11.458Z,98493.23
2023-01-17T05:18:16.621Z,98493.66
2023-01-17T05:19:21.033Z,98494.20
2023-01-17T05:20:26.226Z,98488.83
2023-01-17T05:21:30.568Z,98490.77
2023-01-17T05:22:33.476Z,98488.82
2023-01-17T05:23:36.591Z,98490.37
2023-01-17T05:24:40.026Z,98487.77
2023-01-17T05:25:44.440Z,98484.95
2023-01-17T05:26:54.720Z,98480.46
2023-01-17T05:28:00.307Z,98483.16
2023-01-17T05:29:03.360Z,98481.15
2023-01-17T05:30:06.939Z,98479.34
2023-01-17T05:31:10.170Z,98474.80
2023-01-17T05:32:13.207Z,98478.58
2023-01-17T05:33:16.233Z,98472.91
2023-01-17T05:34:19.300Z,98469.80
2023-01-17T05:35:25.458Z,98469.27
2023-01-17T05:36:28.503Z,98462.33
2023-01-17T05:37:31.426Z,98461.15
2023-01-17T05:38:34.841Z,98460.56
2023-01-17T05:39:37.817Z,98462.90
2023-01-17T05:40:40.971Z,98461.33
2023-01-17T05:41:44.461Z,98460.63
2023-01-17T05:42:48.823Z,98465.91
2023-01-17T05:43:51.860Z,98467.99
2023-01-17T05:44:55.192Z,98467.95
2023-01-17T05:45:58.305Z,98470.08
2023-01-17T05:47:01.404Z,98468.84
2023-01-17T05:48:04.887Z,98465.79
2023-01-17T05:49:07.869Z,98463.68
2023-01-17T05:50:12.983Z,98461.80
2023-01-17T05:51:15.963Z,98469.01
2023-01-17T05:52:20.588Z,98462.30
2023-01-17T05:53:23.563Z,98463.95
2023-01-17T05:54:26.617Z,98462.23
2023-01-17T05:55:30.594Z,98459.95
2023-01-17T05:56:34.160Z,98463.00
2023-01-17T05:57:37.396Z,98461.73
2023-01-17T05:58:40.367Z,98462.95
2023-01-17T05:59:43.313Z,98463.61
2023-01-17T06:00:46.982Z,98467.02
2023-01-17T06:01:50.195Z,98470.48
2023-01-17T06:02:54.957Z,98472.20
2023-01-17T06:03:57.981Z,98466.16
2023-01-17T06:05:03.341Z,98468.68
2023-01-17T06:06:06.804Z,98471.14
2023-01-17T06:07:10.018Z,98472.63
2023-01-17T06:08:13.936Z,98473.80
2023-01-17T06:09:16.880Z,98472.28
2023-01-17T06:10:21.779Z,98469.48
2023-01-17T06:11:24.861Z,98465.06
2023-01-17T06:12:27.791Z,98468.48
2023-01-17T06:13:30.818Z,98464.15
2023-01-17T06:14:33.784Z,98466.56
2023-01-17T06:15:38.343Z,98469.75
2023-01-17T06:16:41.504Z,98470.95
2023-01-17T06:17:44.534Z,98470.27
2023-01-17T06:18:47.653Z,98468.70
2023-01-17T06:19:50.571Z,98466.33
2023-01-17T06:20:56.972Z,98463.86
2023-01-17T06:21:59.991Z,98465.05
2023-01-17T06:23:05.077Z,98468.10
2023-01-17T06:24:08.222Z,98464.25
2023-01-17T06:25:11.309Z,98463.39
2023-01-17T06:26:14.246Z,98462.95
2023-01-17T06:27:17.421Z,98463.98
2023-01-17T06:28:21.899Z,98463.63
2023-01-17T06:29:25.037Z,98463.83
2023-01-17T06:30:28.185Z,98463.48
2023-01-17T06:31:31.156Z,98460.19
2023-01-17T06:32:34.289Z,98462.46
2023-01-17T06:33:37.427Z,98463.63
2023-01-17T06:34:41.277Z,98461.02
2023-01-17T06:35:49.422Z,98465.07
2023-01-17T06:36:52.443Z,98457.96
2023-01-17T06:37:55.856Z,98462.08
2023-01-17T06:38:58.974Z,98457.55
2023-01-17T06:40:02.049Z,98458.41
2023-01-17T06:41:05.908Z,98453.77
2023-01-17T06:42:08.874Z,98456.25
2023-01-17T06:43:11.978Z,98459.70
2023-01-17T06:44:15.028Z,98461.13
2023-01-17T06:45:19.155Z,98466.81
2023-01-17T06:46:23.359Z,98463.33
2023-01-17T06:47:26.439Z,98468.98
2023-01-17T06:48:29.674Z,98470.60
2023-01-17T06:49:33.191Z,98471.38
2023-01-17T06:50:36.332Z,98467.64
2023-01-17T06:51:39.444Z,98471.99
2023-01-17T06:52:43.133Z,98475.83
2023-01-17T06:53:48.580Z,98475.33
2023-01-17T06:54:51.543Z,98475.03
2023-01-17T06:55:57.806Z,98473.31
2023-01-17T06:57:00.716Z,98473.10
2023-01-17T06:58:03.724Z,98469.11
2023-01-17T06:59:06.884Z,98469.92
2023-01-17T07:00:10.802Z,98471.42
2023-01-17T07:01:14.156Z,98467.14
2023-01-17T07:02:17.416Z,98471.06
2023-01-17T07:03:23.612Z,98468.96
2023-01-17T07:04:26.660Z,98468.02
2023-01-17T07:05:29.739Z,98467.68
2023-01-17T07:06:35.187Z,98470.25
2023-01-17T07:07:38.116Z,98470.20
2023-01-17T07:08:41.023Z,98466.41
2023-01-17T07:09:44.124Z,98467.17
2023-01-17T07:10:47.999Z,98466.86
2023-01-17T07:11:52.780Z,98463.26
2023-01-17T07:13:00.774Z,98466.27
2023-01-17T07:14:03.805Z,98466.02
2023-01-17T07:15:07.802Z,98469.58
2023-01-17T07:16:10.826Z,98468.20
2023-01-17T07:17:13.828Z,98472.23
2023-01-17T07:18:20.644Z,98471.10
2023-01-17T07:19:24.480Z,98468.66
2023-01-17T07:20:27.708Z,98469.48
2023-01-17T07:21:30.848Z,98465.71
2023-01-17T07:22:33.926Z,98467.56
2023-01-17T07:23:36.943Z,98470.33
2023-01-17T07:24:40.026Z,98469.21
2023-01-17T07:25:43.103Z,98464.90
2023-01-17T07:26:50.611Z,98464.48
2023-01-17T07:27:55.163Z,98462.29
2023-01-17T07:28:58.869Z,98459.24
2023-01-17T07:30:01.929Z,98460.19
2023-01-17T07:31:08.216Z,98455.34
2023-01-17T07:32:11.273Z,98453.55
2023-01-17T07:33:14.687Z,98456.55
2023-01-17T07:34:17.702Z,98454.36
2023-01-17T07:35:21.689Z,98457.27
2023-01-17T07:36:24.758Z,98458.32
2023-01-17T07:37:27.776Z,98458.18
2023-01-17T07:38:30.793Z,98459.36
2023-01-17T07:39:34.594Z,98459.96
2023-01-17T07:40:42.010Z,98458.42
2023-01-17T07:41:46.646Z,98456.86
2023-01-17T07:42:49.605Z,98459.42
2023-01-17T07:43:52.697Z,98460.12
2023-01-17T07:44:56.184Z,98458.32
2023-01-17T07:46:01.306Z,98458.52
2023-01-17T07:47:05.014Z,98458.60
2023-01-17T07:48:08.093Z,98457.95
2023-01-17T07:49:11.156Z,98454.23
2023-01-17T07:50:14.131Z,98455.41
2023-01-17T07:51:18.020Z,98453.00
2023-01-17T07:52:21.500Z,98450.47
2023-01-17T07:53:27.102Z,98445.93
2023-01-17T07:54:30.307Z,98443.39
2023-01-17T07:55:33.231Z,98440.02
2023-01-17T07:56:36.144Z,98436.12
2023-01-17T07:57:39.059Z,98439.59
2023-01-17T07:58:43.011Z,98440.64
2023-01-17T07:59:46.634Z,98439.70
2023-01-17T08:00:49.637Z,98434.95
2023-01-17T08:01:53.145Z,98432.73
2023-01-17T08:02:57.698Z,98432.52
2023-01-17T08:04:00.903Z,98425.23
2023-01-17T08:05:04.441Z,98425.56
2023-01-17T08:06:20.146Z,98424.89
2023-01-17T08:07:23.134Z,98424.80
2023-01-17T08:08:26.407Z,98426.63
2023-01-17T08:09:29.723Z,98426.05
2023-01-17T08:10:32.949Z,98424.67
2023-01-17T08:11:35.895Z,98418.80
2023-01-17T08:12:38.853Z,98416.79
2023-01-17T08:13:41.951Z,98421.86
2023-01-17T08:14:45.339Z,98426.62
2023-01-17T08:15:50.004Z,98429.23
2023-01-17T08:16:53.308Z,98432.08
2023-01-17T08:17:57.720Z,98435.17
2023-01-17T08:19:00.813Z,98434.85
2023-01-17T08:20:06.141Z,98431.20
2023-01-17T08:21:13.450Z,98430.67
2023-01-17T08:22:16.329Z,98432.17
2023-01-17T08:23:19.267Z,98435.15
2023-01-17T08:24:22.223Z,98434.86
2023-01-17T08:25:26.630Z,98435.86
2023-01-17T08:26:29.815Z,98434.33
2023-01-17T08:27:34.533Z,98435.21
2023-01-17T08:28:38.369Z,98434.50
2023-01-17T08:29:47.103Z,98433.10
2023-01-17T08:30:50.113Z,98430.07
2023-01-17T08:31:54.184Z,98430.30
2023-01-17T08:32:57.165Z,98430.46
2023-01-17T08:34:00.436Z,98429.46
2023-01-17T08:35:03.443Z,98434.64
2023-01-17T08:36:06.447Z,98432.75
2023-01-17T08:37:09.726Z,98436.94
2023-01-17T08:38:12.889Z,98435.27
2023-01-17T08:39:15.826Z,98438.47
2023-01-17T08:40:19.767Z,98443.67
2023-01-17T08:41:24.465Z,98437.48
2023-01-17T08:42:27.582Z,98438.81
2023-01-17T08:43:30.541Z,98440.89
2023-01-17T08:44:33.455Z,98436.38
2023-01-17T08:45:36.425Z,98433.17
2023-01-17T08:46:39.874Z,98431.89
2023-01-17T08:47:43.084Z,98428.82
2023-01-17T08:48:46.477Z,98426.98
2023-01-17T08:49:49.378Z,98427.69
2023-01-17T08:50:52.475Z,98429.68
2023-01-17T08:51:55.787Z,98427.31
2023-01-17T08:53:01.057Z,98425.42
2023-01-17T08:54:04.566Z,98430.77
2023-01-17T08:55:10.424Z,98434.92
2023-01-17T08:56:13.458Z,98431.54
2023-01-17T08:57:16.422Z,98429.98
2023-01-17T08:58:19.534Z,98438.89
2023-01-17T08:59:22.526Z,98439.58
2023-01-17T09:00:27.097Z,98440.80
2023-01-17T09:01:30.541Z,98440.71
2023-01-17T09:02:34.025Z,98442.13
2023-01-17T09:03:40.710Z,98441.19
2023-01-17T09:04:48.434Z,98436.92
2023-01-17T09:06:20.312Z,98440.17
2023-01-17T09:07:24.419Z,98442.37
2023-01-17T09:08:27.742Z,98445.70
2023-01-17T09:09:30.887Z,98442.25
2023-01-17T09:10:33.864Z,98441.50
2023-01-17T09:11:36.971Z,98440.09
2023-01-17T09:12:40.464Z,98443.17
2023-01-17T09:13:44.104Z,98443.11
2023-01-17T09:14:47.299Z,98446.28
2023-01-17T09:15:50.601Z,98444.23
2023-01-17T09:16:53.573Z,98444.67
2023-01-17T09:17:57.352Z,98447.00
2023-01-17T09:19:00.839Z,98448.47
2023-01-17T09:20:04.344Z,98449.16
2023-01-17T09:21:16.146Z,98451.58
2023-01-17T09:22:19.089Z,98448.95
2023-01-17T09:23:23.046Z,98450.39
2023-01-17T09:24:26.302Z,98451.83
2023-01-17T09:25:29.517Z,98451.36
2023-01-17T09:26:32.550Z,98452.64
2023-01-17T09:27:35.641Z,98450.08
2023-01-17T09:28:41.141Z,98446.39
2023-01-17T09:29:44.530Z,98448.30
2023-01-17T09:30:47.886Z,98446.91
2023-01-17T09:31:51.063Z,98442.80
2023-01-17T09:32:55.067Z,98444.81
2023-01-17T09:33:59.295Z,98448.05
2023-01-17T09:35:05.379Z,98446.73
2023-01-17T09:36:10.391Z,98448.19
2023-01-17T09:37:13.341Z,98444.84
2023-01-17T09:38:16.668Z,98443.34
2023-01-17T09:39:19.764Z,98439.39
2023-01-17T09:40:25.575Z,98438.89
2023-01-17T09:41:35.060Z,98437.76
2023-01-17T09:42:40.554Z,98435.17
2023-01-17T09:43:55.450Z,98435.16
2023-01-17T09:44:59.468Z,98435.89
2023-01-17T09:46:03.102Z,98435.27
2023-01-17T09:47:18.508Z,98436.23
2023-01-17T09:48:37.597Z,98440.70
2023-01-17T09:49:45.993Z,98440.30
2023-01-17T09:50:58.901Z,98441.80
2023-01-17T09:52:02.386Z,98448.05
2023-01-17T09:53:12.619Z,98447.87
2023-01-17T09:54:22.846Z,98443.98
2023-01-17T09:55:26.617Z,98442.98
2023-01-17T09:56:36.445Z,98444.15
2023-01-17T09:57:48.435Z,98440.80
2023-01-17T09:59:20.021Z,98444.19
2023-01-17T10:00:32.215Z,98447.17
2023-01-17T10:01:46.106Z,98448.59
2023-01-17T10:03:23.857Z,98444.04
2023-01-17T10:04:39.417Z,98447.68
2023-01-17T10:06:10.169Z,98451.52
2023-01-17T10:07:32.432Z,98448.46
2023-01-17T10:08:55.011Z,98442.85
2023-01-17T10:10:24.377Z,98442.39
2023-01-17T10:11:55.976Z,98442.30
2023-01-17T10:13:14.299Z,98443.43
2023-01-17T10:14:49.499Z,98444.11
2023-01-17T10:16:17.290Z,98448.81
2023-01-17T10:17:36.503Z,98443.73
2023-01-17T10:18:57.721Z,98446.91
2023-01-17T10:20:35.273Z,98448.24
2023-01-17T10:22:02.570Z,98446.34
2023-01-17T10:23:25.356Z,98444.34
2023-01-17T10:25:01.472Z,98442.80
2023-01-17T10:26:23.917Z,98442.91
2023-01-17T10:27:57.018Z,98448.11
2023-01-17T10:29:04.684Z,98449.33
2023-01-17T10:30:21.370Z,98451.39
2023-01-17T10:31:28.791Z,98456.35
2023-01-17T10:32:33.431Z,98457.83
2023-01-17T10:33:48.965Z,98454.70
2023-01-17T10:34:53.406Z,98452.24
2023-01-17T10:36:05.027Z,98448.70
2023-01-17T10:37:20.688Z,98444.98
2023-01-17T10:38:35.903Z,98445.58
2023-01-17T10:39:39.414Z,98444.80
2023-01-17T10:40:54.846Z,98445.22
2023-01-17T10:42:13.442Z,98446.86
2023-01-17T10:43:47.687Z,98450.52
2023-01-17T10:45:05.505Z,98450.16
2023-01-17T10:46:16.119Z,98454.11
2023-01-17T10:47:24.464Z,98450.56
2023-01-17T10:48:43.834Z,98454.02
2023-01-17T10:49:50.205Z,98454.61
2023-01-17T10:51:02.046Z,98456.90
2023-01-17T10:52:26.373Z,98454.02
2023-01-17T10:53:35.143Z,98457.39
2023-01-17T10:54:53.127Z,98453.52
2023-01-17T10:55:56.548Z,98458.41
2023-01-17T10:56:59.676Z,98461.71
2023-01-17T10:58:03.645Z,98453.75
2023-01-17T10:59:18.620Z,98454.83
2023-01-17T11:00:28.007Z,98457.07
2023-01-17T11:01:34.650Z,98451.48
2023-01-17T11:02:45.897Z,98447.98
2023-01-17T11:03:54.695Z,98449.21
2023-01-17T11:05:03.600Z,98447.24
2023-01-17T11:06:24.988Z,98451.64
2023-01-17T11:07:29.857Z,98449.71
2023-01-17T11:08:59.787Z,98450.73
2023-01-17T11:10:03.013Z,98448.71
2023-01-17T11:11:06.779Z,98448.86
2023-01-17T11:12:40.551Z,98438.95
2023-01-17T11:13:48.878Z,98440.40
2023-01-17T11:15:12.373Z,98436.72
2023-01-17T11:16:21.793Z,98437.08
2023-01-17T11:17:27.856Z,98438.42
2023-01-17T11:18:35.736Z,98435.44
2023-01-17T11:19:39.546Z,98432.19
2023-01-17T11:20:43.708Z,98435.45
2023-01-17T11:21:56.033Z,98439.86
2023-01-17T11:23:14.896Z,98440.11
2023-01-17T11:24:28.358Z,98439.79
2023-01-17T11:25:35.965Z,98431.27
2023-01-17T11:26:47.576Z,98435.52
2023-01-17T11:28:00.606Z,98435.52
2023-01-17T11:29:33.051Z,98432.58
2023-01-17T11:30:37.187Z,98433.50
2023-01-17T11:31:40.443Z,98427.13
2023-01-17T11:32:56.107Z,98427.95
2023-01-17T11:34:13.706Z,98421.79
2023-01-17T11:35:25.660Z,98416.09
2023-01-17T11:36:30.788Z,98411.36
2023-01-17T11:37:35.391Z,98415.20
2023-01-17T11:38:38.596Z,98418.58
2023-01-17T11:39:43.555Z,98425.05
2023-01-17T11:40:48.864Z,98432.29
2023-01-17T11:41:52.947Z,98422.10
2023-01-17T11:43:18.749Z,98428.02
2023-01-17T11:44:28.223Z,98422.41
2023-01-17T11:45:33.953Z,98425.50
2023-01-17T11:46:38.326Z,98427.09
2023-01-17T11:47:42.036Z,98428.23
2023-01-17T11:49:03.049Z,98425.71
2023-01-17T11:50:24.016Z,98429.58
2023-01-17T11:51:33.440Z,98425.20
2023-01-17T11:52:39.147Z,98428.23
2023-01-17T11:53:48.822Z,98425.16
2023-01-17T11:54:54.768Z,98425.45
2023-01-17T11:56:06.126Z,98420.59
2023-01-17T11:57:27.769Z,98421.05
2023-01-17T11:58:34.651Z,98421.81
2023-01-17T11:59:44.167Z,98420.86
2023-01-17T12:00:53.578Z,98421.06
2023-01-17T12:02:19.891Z,98425.30
2023-01-17T12:03:39.593Z,98421.95
2023-01-17T12:04:58.644Z,98423.44
2023-01-17T12:06:26.610Z,98427.23
2023-01-17T12:07:52.907Z,98423.67
2023-01-17T12:08:58.640Z,98426.77
2023-01-17T12:10:19.896Z,98427.91
2023-01-17T12:11:36.034Z,98424.94
2023-01-17T12:13:14.307Z,98424.98
2023-01-17T12:14:49.167Z,98428.33
2023-01-17T12:16:34.194Z,98430.30
2023-01-17T12:18:20.769Z,98432.85
2023-01-17T12:20:01.179Z,98435.09
2023-01-17T12:21:22.102Z,98433.56
2023-01-17T12:22:49.505Z,98432.48
2023-01-17T12:24:19.415Z,98434.64
2023-01-17T12:25:59.724Z,98437.35
2023-01-17T12:27:34.940Z,98436.60
2023-01-17T12:28:55.396Z,98432.53
2023-01-17T12:30:10.821Z,98434.29
2023-01-17T12:31:37.263Z,98439.03
2023-01-17T12:33:06.552Z,98434.15
2023-01-17T12:34:27.842Z,98433.38
2023-01-17T12:35:41.262Z,98437.16
2023-01-17T12:37:02.340Z,98433.55
2023-01-17T12:38:33.318Z,98438.38
2023-01-17T12:39:42.036Z,98436.77
2023-01-17T12:41:16.529Z,98437.77
2023-01-17T12:42:24.251Z,98437.90
2023-01-17T12:43:33.093Z,98436.24
2023-01-17T12:44:41.632Z,98440.23
2023-01-17T12:45:47.318Z,98442.41
2023-01-17T12:46:59.201Z,98443.53
2023-01-17T12:48:10.237Z,98447.41
2023-01-17T12:49:39.682Z,98446.61
2023-01-17T12:50:51.380Z,98446.68
2023-01-17T12:52:13.212Z,98455.76
2023-01-17T12:53:50.999Z,98452.30
2023-01-17T12:55:00.490Z,98459.63
2023-01-17T12:56:09.109Z,98460.63
2023-01-17T12:57:18.953Z,98461.85
2023-01-17T12:58:26.879Z,98463.45
2023-01-17T12:59:40.717Z,98464.19
2023-01-17T13:00:48.893Z,98467.87
2023-01-17T13:01:57.774Z,98469.18
2023-01-17T13:03:20.670Z,98472.95
2023-01-17T13:04:58.789Z,98472.47
2023-01-17T13:06:06.267Z,98471.30
2023-01-17T13:07:50.689Z,98472.30
2023-01-17T13:08:58.205Z,98472.21
2023-01-17T13:10:40.468Z,98471.21
2023-01-17T13:11:51.911Z,98473.77
2023-01-17T13:13:00.622Z,98471.77
2023-01-17T13:14:09.434Z,98475.41
2023-01-17T13:15:20.730Z,98478.89
2023-01-17T13:16:30.078Z,98481.19
2023-01-17T13:17:45.194Z,98482.39
2023-01-17T13:18:49.412Z,98488.48
2023-01-17T13:20:06.618Z,98489.25
2023-01-17T13:21:28.110Z,98486.38
2023-01-17T13:22:32.718Z,98486.95
2023-01-17T13:24:03.995Z,98492.25
2023-01-17T13:25:26.377Z,98503.55
2023-01-17T13:26:55.781Z,98500.48
2023-01-17T13:28:05.815Z,98502.88
2023-01-17T13:29:29.756Z,98502.83
2023-01-17T13:30:43.545Z,98507.61
2023-01-17T13:31:51.837Z,98509.58
2023-01-17T13:33:03.699Z,98507.82
2023-01-17T13:34:48.053Z,98515.01
2023-01-17T13:36:03.429Z,98514.14
2023-01-17T13:37:42.595Z,98519.46
2023-01-17T13:39:17.154Z,98519.82